Time;durP1;ratioP1;P1;durP2;ratioP2;P2;SDS_P1;SDS_P2;PMS_P1;PMS_P2;Temp;Humidity;BMP_temperature;BMP_pressure;BME280_temperature;BME280_humidity;BME280_pressure;Samples;Min_cycle;Max_cycle;Signal;HPM_P1;HPM_P2
2023/06/27 00:00:43;;;;;;;7.53;2.10;;;14.10;99.90;;;;;;5063894;28;20102;-72
2023/06/27 00:03:11;;;;;;;4.70;2.00;;;;;;;;;;5064736;28;20051;-72
2023/06/27 00:05:36;;;;;;;5.95;2.03;;;14.30;99.90;;;;;;5061768;28;20112;-72
2023/06/27 00:08:02;;;;;;;8.15;2.78;;;14.30;99.90;;;;;;5060281;28;20044;-72
2023/06/27 00:10:28;;;;;;;5.68;2.20;;;14.20;99.90;;;;;;5053115;28;20040;-72
2023/06/27 00:12:56;;;;;;;4.20;2.20;;;;;;;;;;5056005;28;20044;-72
2023/06/27 00:15:22;;;;;;;5.80;2.20;;;14.20;99.90;;;;;;5059853;28;20044;-72
2023/06/27 00:17:48;;;;;;;5.10;2.70;;;14.20;99.90;;;;;;5056439;28;20428;-72
2023/06/27 00:20:14;;;;;;;3.58;2.38;;;;;;;;;;5064011;28;20649;-73
2023/06/27 00:22:40;;;;;;;4.88;2.00;;;;;;;;;;5068592;28;20119;-72
2023/06/27 00:25:12;;;;;;;4.97;2.10;;;14.20;99.90;;;;;;5061010;28;20186;-72
2023/06/27 00:27:38;;;;;;;4.25;1.90;;;;;;;;;;5068437;28;20074;-72
2023/06/27 00:30:04;;;;;;;5.85;2.70;;;;;;;;;;5065578;28;20171;-72
2023/06/27 00:32:30;;;;;;;3.50;1.90;;;;;;;;;;5068428;28;20553;-72
2023/06/27 00:34:56;;;;;;;4.45;2.13;;;;;;;;;;5060909;28;20048;-72
2023/06/27 00:37:22;;;;;;;5.40;2.15;;;14.20;99.90;;;;;;5042722;28;20044;-72
2023/06/27 00:39:47;;;;;;;6.10;2.22;;;14.20;99.90;;;;;;5060740;28;20048;-72
2023/06/27 00:42:13;;;;;;;3.50;1.98;;;;;;;;;;5062011;28;20048;-72
2023/06/27 00:44:39;;;;;;;7.45;1.80;;;;;;;;;;5066628;28;20049;-72
2023/06/27 00:47:05;;;;;;;8.75;3.13;;;14.20;99.90;;;;;;5068339;28;20528;-72
2023/06/27 00:49:31;;;;;;;7.40;2.20;;;14.20;99.90;;;;;;5066783;28;20048;-72
2023/06/27 00:51:57;;;;;;;5.93;1.92;;;;;;;;;;5051186;28;20080;-72
2023/06/27 00:54:24;;;;;;;4.30;2.13;;;;;;;;;;5062001;28;20122;-72
2023/06/27 00:56:55;;;;;;;4.85;1.80;;;14.00;99.90;;;;;;5050569;28;20443;-72
2023/06/27 00:59:21;;;;;;;4.10;2.00;;;;;;;;;;5054148;28;20172;-72
2023/06/27 01:01:48;;;;;;;5.47;1.95;;;13.90;99.90;;;;;;5055615;28;20080;-72
2023/06/27 01:04:16;;;;;;;5.50;2.10;;;;;;;;;;5067929;28;20106;-72
2023/06/27 01:06:42;;;;;;;5.82;2.33;;;;;;;;;;5068055;28;20093;-72
2023/06/27 01:09:14;;;;;;;7.13;2.28;;;13.70;99.90;;;;;;5040710;28;20112;-72
2023/06/27 01:11:44;;;;;;;5.32;1.95;;;13.60;99.90;;;;;;5054022;28;20529;-72
2023/06/27 01:14:16;;;;;;;3.92;2.20;;;13.50;99.90;;;;;;5068130;28;20804;-72
2023/06/27 01:16:46;;;;;;;5.18;2.05;;;13.50;99.90;;;;;;5068265;28;20119;-72
2023/06/27 01:19:13;;;;;;;3.63;2.00;;;13.40;99.90;;;;;;5054575;28;20506;-72
2023/06/27 01:21:40;;;;;;;3.70;1.92;;;13.50;99.90;;;;;;5054361;28;20067;-72
2023/06/27 01:24:07;;;;;;;4.03;2.33;;;;;;;;;;5062133;28;20797;-72
2023/06/27 01:26:34;;;;;;;4.93;2.25;;;13.50;99.90;;;;;;5052190;28;20135;-72
2023/06/27 01:28:59;;;;;;;5.35;2.63;;;13.40;99.90;;;;;;5055180;28;20050;-72
2023/06/27 01:31:39;;;;;;;4.45;2.15;;;13.60;99.90;;;;;;5059767;28;20044;-72
2023/06/27 01:34:18;;;;;;;3.72;2.28;;;13.50;99.90;;;;;;5059532;28;20074;-72
2023/06/27 01:36:46;;;;;;;6.68;2.80;;;;;;;;;;5057866;28;20044;-72
2023/06/27 01:39:21;;;;;;;5.93;2.33;;;13.50;99.90;;;;;;5067571;28;20059;-72
2023/06/27 01:41:51;;;;;;;4.53;2.42;;;13.50;99.90;;;;;;5061904;28;20047;-73
2023/06/27 01:44:19;;;;;;;6.38;2.38;;;13.40;99.90;;;;;;5067575;28;20044;-72
2023/06/27 01:46:48;;;;;;;6.38;2.60;;;13.40;99.90;;;;;;5067286;28;20044;-72
2023/06/27 01:49:14;;;;;;;6.05;2.65;;;13.50;99.90;;;;;;5067487;28;20410;-73
2023/06/27 01:51:41;;;;;;;4.80;2.35;;;13.60;99.90;;;;;;5067237;28;20429;-72
2023/06/27 01:54:07;;;;;;;3.72;2.42;;;;;;;;;;5061919;28;20048;-72
2023/06/27 01:56:33;;;;;;;7.82;3.03;;;;;;;;;;5067741;28;20051;-72
2023/06/27 01:58:59;;;;;;;6.85;2.50;;;13.50;99.90;;;;;;5056610;28;20123;-72
2023/06/27 02:01:25;;;;;;;4.93;2.60;;;;;;;;;;5067678;28;20123;-72
2023/06/27 02:03:50;;;;;;;6.03;2.72;;;13.50;99.90;;;;;;5058529;28;20118;-72
2023/06/27 02:06:16;;;;;;;7.95;2.25;;;;;;;;;;5055097;28;20040;-72
2023/06/27 02:08:43;;;;;;;6.65;2.88;;;13.40;99.90;;;;;;5046441;28;20041;-72
2023/06/27 02:11:09;;;;;;;6.90;2.55;;;13.50;99.90;;;;;;5049785;28;20047;-72
2023/06/27 02:13:36;;;;;;;4.85;2.67;;;13.50;99.90;;;;;;5055471;28;20048;-72
2023/06/27 02:16:02;;;;;;;6.72;4.25;;;;;;;;;;5055967;28;20040;-72
2023/06/27 02:18:28;;;;;;;5.07;2.70;;;;;;;;;;5069883;28;20071;-72
2023/06/27 02:20:54;;;;;;;6.93;2.97;;;13.40;99.90;;;;;;5059549;28;20063;-72
2023/06/27 02:23:20;;;;;;;4.65;3.03;;;;;;;;;;5056108;28;20460;-72
2023/06/27 02:25:46;;;;;;;7.75;2.83;;;;;;;;;;5060356;28;20066;-72
2023/06/27 02:28:12;;;;;;;8.07;3.25;;;;;;;;;;5063861;28;20051;-72
2023/06/27 02:30:38;;;;;;;6.90;3.20;;;13.50;99.90;;;;;;5056183;28;20082;-72
2023/06/27 02:33:04;;;;;;;7.15;3.55;;;;;;;;;;5058180;28;20040;-72
2023/06/27 02:35:29;;;;;;;10.10;3.55;;;13.40;99.90;;;;;;5052358;28;20150;-72
2023/06/27 02:37:55;;;;;;;6.38;2.97;;;;;;;;;;5061243;28;20127;-72
2023/06/27 02:40:21;;;;;;;4.35;2.88;;;13.50;99.90;;;;;;5056198;28;20123;-72
2023/06/27 02:42:47;;;;;;;3.78;2.75;;;;;;;;;;5066745;28;20850;-72
2023/06/27 02:45:13;;;;;;;9.13;3.45;;;13.40;99.90;;;;;;5061141;28;20043;-72
2023/06/27 02:47:39;;;;;;;4.68;2.92;;;13.50;99.90;;;;;;5054351;28;20036;-72
2023/06/27 02:50:05;;;;;;;6.32;3.00;;;;;;;;;;5066007;28;20570;-72
2023/06/27 02:52:31;;;;;;;6.15;3.17;;;;;;;;;;5061686;28;20048;-72
2023/06/27 02:54:57;;;;;;;6.55;3.13;;;;;;;;;;5066196;28;20056;-72
2023/06/27 02:57:23;;;;;;;4.40;2.95;;;;;;;;;;5050110;28;20052;-72
2023/06/27 02:59:49;;;;;;;8.35;3.45;;;;;;;;;;5057782;28;20141;-72
2023/06/27 03:02:15;;;;;;;5.90;3.45;;;;;;;;;;5062105;28;20048;-72
2023/06/27 03:04:41;;;;;;;9.00;3.90;;;;;;;;;;5058706;28;20504;-72
2023/06/27 03:07:07;;;;;;;5.97;3.42;;;;;;;;;;5057924;28;20084;-72
2023/06/27 03:09:35;;;;;;;7.80;3.42;;;;;;;;;;5060830;28;20044;-72
2023/06/27 03:12:01;;;;;;;6.20;3.65;;;;;;;;;;5055233;28;20055;-72
2023/06/27 03:14:26;;;;;;;7.43;3.53;;;13.30;99.90;;;;;;5060230;28;20048;-72
2023/06/27 03:16:54;;;;;;;6.20;3.50;;;;;;;;;;5052417;28;20045;-71
2023/06/27 03:19:20;;;;;;;4.72;4.20;;;13.30;99.90;;;;;;5065355;28;20049;-72
2023/06/27 03:21:45;;;;;;;5.50;3.30;;;13.30;99.90;;;;;;5066153;28;20426;-72
2023/06/27 03:24:11;;;;;;;6.78;3.60;;;;;;;;;;5066155;28;20040;-72
2023/06/27 03:26:37;;;;;;;6.70;4.03;;;13.20;99.90;;;;;;5059114;28;20055;-72
2023/06/27 03:29:03;;;;;;;8.10;3.80;;;;;;;;;;5059287;28;20040;-71
2023/06/27 03:31:28;;;;;;;6.78;4.03;;;;;;;;;;5062484;28;20041;-72
2023/06/27 03:33:56;;;;;;;9.88;3.92;;;;;;;;;;5055800;28;20055;-72
2023/06/27 03:36:24;;;;;;;8.32;4.20;;;;;;;;;;5055223;28;20149;-72
2023/06/27 03:38:50;;;;;;;10.00;4.13;;;13.30;99.90;;;;;;5069017;28;20162;-71
2023/06/27 03:41:16;;;;;;;7.78;4.10;;;;;;;;;;5062024;28;20401;-72
2023/06/27 03:43:42;;;;;;;7.18;4.25;;;13.40;99.90;;;;;;5058237;28;20045;-72
2023/06/27 03:46:12;;;;;;;5.22;4.50;;;;;;;;;;5061655;28;20044;-72
2023/06/27 03:48:38;;;;;;;10.50;4.55;;;;;;;;;;5067816;28;20418;-72
2023/06/27 03:51:04;;;;;;;8.93;4.65;;;;;;;;;;5068304;28;20070;-72
2023/06/27 03:53:29;;;;;;;8.45;4.55;;;13.40;99.90;;;;;;5071208;28;20133;-71
2023/06/27 03:55:55;;;;;;;8.50;4.32;;;;;;;;;;5074085;28;20422;-72
2023/06/27 03:58:21;;;;;;;10.45;4.93;;;;;;;;;;5063904;28;20485;-72
2023/06/27 04:00:48;;;;;;;8.65;4.40;;;;;;;;;;5070511;28;20070;-72
2023/06/27 04:03:14;;;;;;;11.73;5.50;;;;;;;;;;5057095;28;20135;-72
2023/06/27 04:05:40;;;;;;;9.15;5.10;;;;;;;;;;5071208;28;20072;-72
2023/06/27 04:08:06;;;;;;;7.97;4.75;;;;;;;;;;5067370;28;20493;-72
2023/06/27 04:10:32;;;;;;;6.70;4.88;;;;;;;;;;5066495;28;20045;-72
2023/06/27 04:12:57;;;;;;;6.85;4.22;;;13.80;99.90;;;;;;5053879;28;20068;-72
2023/06/27 04:15:23;;;;;;;9.80;4.28;;;;;;;;;;5050737;28;20037;-72
2023/06/27 04:17:49;;;;;;;10.20;5.07;;;;;;;;;;5057498;28;20428;-72
2023/06/27 04:20:15;;;;;;;6.38;4.68;;;;;;;;;;5051249;28;20047;-73
2023/06/27 04:22:41;;;;;;;14.07;5.38;;;13.90;99.90;;;;;;5055760;28;20410;-72
2023/06/27 04:25:10;;;;;;;7.80;4.68;;;14.00;99.90;;;;;;5052839;28;20530;-72
2023/06/27 04:27:36;;;;;;;11.32;4.85;;;;;;;;;;5057271;28;20040;-72
2023/06/27 04:30:03;;;;;;;7.00;4.80;;;;;;;;;;5056424;28;20051;-72
2023/06/27 04:32:33;;;;;;;6.90;4.70;;;;;;;;;;5058781;28;20656;-72
2023/06/27 04:34:59;;;;;;;7.90;5.13;;;;;;;;;;5063734;28;20048;-72
2023/06/27 04:37:25;;;;;;;8.48;5.45;;;;;;;;;;5061719;28;20045;-72
2023/06/27 04:39:53;;;;;;;13.50;5.22;;;;;;;;;;5048826;28;20044;-72
2023/06/27 04:42:19;;;;;;;10.57;5.00;;;;;;;;;;5067712;28;20305;-72
2023/06/27 04:44:45;;;;;;;13.23;5.80;;;14.40;99.90;;;;;;5068910;28;20490;-72
2023/06/27 04:47:11;;;;;;;7.45;4.95;;;;;;;;;;5069305;28;20086;-72
2023/06/27 04:49:37;;;;;;;10.88;5.07;;;;;;;;;;5062619;28;20041;-72
2023/06/27 04:52:03;;;;;;;8.63;5.15;;;14.70;99.90;;;;;;5071008;28;20041;-71
2023/06/27 04:54:28;;;;;;;11.07;5.40;;;15.00;99.90;;;;;;5059596;28;20143;-72
2023/06/27 04:56:54;;;;;;;7.57;5.20;;;;;;;;;;5065355;28;20052;-72
2023/06/27 04:59:20;;;;;;;9.50;4.63;;;;;;;;;;5061069;28;20074;-72
2023/06/27 05:01:46;;;;;;;7.50;4.43;;;15.80;99.90;;;;;;5050923;28;20554;-72
2023/06/27 05:04:12;;;;;;;9.35;5.35;;;15.80;99.90;;;;;;5061816;28;20052;-72
2023/06/27 05:06:38;;;;;;;11.38;5.03;;;;;;;;;;5058797;28;20620;-72
2023/06/27 05:09:04;;;;;;;9.50;5.00;;;;;;;;;;5054990;28;20041;-72
2023/06/27 05:11:30;;;;;;;7.55;4.35;;;;;;;;;;5067198;28;20047;-72
2023/06/27 05:13:57;;;;;;;7.25;3.78;;;;;;;;;;5068187;28;20687;-72
2023/06/27 05:16:23;;;;;;;8.07;4.57;;;19.40;99.90;;;;;;5033420;28;20049;-72
2023/06/27 05:18:48;;;;;;;7.20;3.50;;;18.00;99.90;;;;;;5068392;28;20036;-72
2023/06/27 05:21:14;;;;;;;7.97;3.40;;;;;;;;;;5067669;28;20052;-72
2023/06/27 05:23:40;;;;;;;8.63;3.35;;;;;;;;;;5067840;28;20044;-71
2023/06/27 05:26:06;;;;;;;7.13;3.00;;;18.80;99.90;;;;;;5054616;28;20047;-72
2023/06/27 05:28:34;;;;;;;5.97;2.90;;;19.30;99.90;;;;;;5057379;28;20045;-72
2023/06/27 05:31:00;;;;;;;5.70;2.80;;;;;;;;;;5061611;28;20040;-71
2023/06/27 05:33:25;;;;;;;7.65;2.30;;;20.00;99.90;;;;;;5067787;28;20114;-72
2023/06/27 05:35:51;;;;;;;11.55;2.88;;;20.30;99.90;;;;;;5057701;28;20044;-72
2023/06/27 05:38:17;;;;;;;8.13;2.85;;;20.30;99.90;;;;;;5061231;28;20060;-72
2023/06/27 05:40:43;;;;;;;5.32;2.35;;;20.40;99.90;;;;;;5067200;28;20032;-72
2023/06/27 05:43:09;;;;;;;5.10;2.25;;;;;;;;;;5067271;28;20067;-72
2023/06/27 05:45:34;;;;;;;6.90;2.20;;;20.80;99.90;;;;;;5067526;28;20102;-72
2023/06/27 05:48:00;;;;;;;7.70;1.98;;;20.80;99.90;;;;;;5067651;28;20444;-72
2023/06/27 05:50:27;;;;;;;5.25;1.75;;;21.40;99.90;;;;;;5060144;28;20549;-72
2023/06/27 05:52:52;;;;;;;7.25;2.08;;;21.90;99.90;;;;;;5063299;28;20049;-72
2023/06/27 05:55:18;;;;;;;5.35;1.63;;;22.90;99.90;;;;;;5055423;28;20048;-72
2023/06/27 05:57:43;;;;;;;7.55;1.45;;;22.80;99.90;;;;;;5063421;28;20102;-72
2023/06/27 06:00:11;;;;;;;10.77;1.50;;;23.60;99.90;;;;;;5067367;28;20047;-72
2023/06/27 06:02:37;;;;;;;5.25;1.08;;;23.90;99.90;;;;;;5065662;28;20052;-72
2023/06/27 06:05:04;;;;;;;7.10;1.00;;;24.20;99.90;;;;;;5054346;28;20041;-72
2023/06/27 06:07:31;;;;;;;4.03;1.00;;;24.70;99.90;;;;;;5067211;28;20052;-72
2023/06/27 06:09:56;;;;;;;8.48;1.35;;;25.00;99.90;;;;;;5067892;28;20044;-72
2023/06/27 06:12:22;;;;;;;4.78;1.08;;;26.60;99.90;;;;;;5058278;28;20153;-72
2023/06/27 06:14:47;;;;;;;5.80;0.90;;;25.90;99.90;;;;;;5063364;28;20047;-72
2023/06/27 06:17:13;;;;;;;3.53;0.80;;;27.40;99.90;;;;;;5065141;28;20119;-72
2023/06/27 06:19:38;;;;;;;4.75;0.70;;;27.80;99.90;;;;;;5050288;28;20043;-72
2023/06/27 06:22:05;;;;;;;2.92;0.60;;;26.70;99.90;;;;;;5056202;28;20055;-72
2023/06/27 06:24:30;;;;;;;5.45;0.80;;;26.70;99.90;;;;;;5067500;28;20091;-72
2023/06/27 06:26:56;;;;;;;7.05;0.73;;;26.80;99.90;;;;;;5059136;28;20076;-72
2023/06/27 06:29:21;;;;;;;3.92;0.65;;;27.20;99.90;;;;;;5067888;28;20058;-72
2023/06/27 06:31:47;;;;;;;7.60;0.68;;;27.70;99.90;;;;;;5060284;28;20078;-72
2023/06/27 06:34:12;;;;;;;5.45;0.50;;;28.90;99.90;;;;;;5067684;28;20052;-72
2023/06/27 06:36:38;;;;;;;5.70;0.60;;;28.40;99.90;;;;;;5064559;28;20125;-72
2023/06/27 06:39:04;;;;;;;5.72;0.50;;;27.30;99.90;;;;;;5062572;28;21221;-72
2023/06/27 06:41:30;;;;;;;3.90;0.65;;;28.20;99.90;;;;;;5069797;28;20063;-72
2023/06/27 06:43:55;;;;;;;4.00;0.40;;;27.10;99.90;;;;;;5070436;28;20047;-72
2023/06/27 06:46:23;;;;;;;4.28;0.70;;;25.10;99.90;;;;;;5071317;28;20040;-72
2023/06/27 06:48:49;;;;;;;5.32;0.60;;;24.70;99.90;;;;;;5056749;28;20561;-72
2023/06/27 06:51:15;;;;;;;3.90;0.40;;;24.40;99.90;;;;;;5053944;28;20052;-71
2023/06/27 06:53:41;;;;;;;7.63;0.80;;;23.70;99.90;;;;;;5049750;28;20036;-71
2023/06/27 06:56:06;;;;;;;3.33;0.60;;;23.50;99.90;;;;;;5053988;28;20043;-70
2023/06/27 06:58:32;;;;;;;3.95;0.60;;;23.20;99.90;;;;;;5058658;28;20051;-71
2023/06/27 07:00:57;;;;;;;3.17;0.45;;;24.50;99.90;;;;;;5056840;28;20046;-71
2023/06/27 07:03:23;;;;;;;4.82;0.40;;;24.50;99.90;;;;;;5063187;28;20106;-71
2023/06/27 07:05:48;;;;;;;4.40;0.52;;;22.60;99.90;;;;;;5057541;28;20123;-71
2023/06/27 07:08:14;;;;;;;4.82;0.47;;;22.60;99.90;;;;;;5043885;28;20040;-71
2023/06/27 07:10:40;;;;;;;2.05;0.65;;;22.40;99.90;;;;;;5066316;28;20498;-71
2023/06/27 07:13:05;;;;;;;3.70;0.50;;;22.40;99.90;;;;;;5066017;28;20040;-70
2023/06/27 07:15:32;;;;;;;3.72;0.40;;;22.30;99.90;;;;;;5025374;28;20050;-71
2023/06/27 07:17:58;;;;;;;6.97;0.60;;;22.10;99.90;;;;;;5043922;28;20119;-71
2023/06/27 07:20:23;;;;;;;4.30;0.43;;;22.20;99.90;;;;;;5062465;28;20057;-71
2023/06/27 07:22:49;;;;;;;4.82;0.93;;;22.00;99.90;;;;;;5054707;28;20845;-71
2023/06/27 07:25:15;;;;;;;6.00;0.80;;;21.70;99.90;;;;;;5049193;28;20102;-71
2023/06/27 07:27:42;;;;;;;4.82;0.40;;;21.90;99.90;;;;;;5059961;28;20047;-71
2023/06/27 07:30:08;;;;;;;5.90;0.57;;;22.00;99.90;;;;;;5043159;28;20132;-71
2023/06/27 07:32:34;;;;;;;2.67;0.43;;;23.80;99.90;;;;;;5037157;28;20085;-70
2023/06/27 07:34:59;;;;;;;3.33;0.60;;;21.20;99.90;;;;;;5059328;28;20040;-70
2023/06/27 07:37:25;;;;;;;2.25;0.70;;;21.10;99.90;;;;;;5047407;28;20044;-71
2023/06/27 07:39:51;;;;;;;3.25;0.55;;;21.00;99.90;;;;;;5065171;28;20398;-71
2023/06/27 07:42:17;;;;;;;2.38;0.50;;;20.90;99.90;;;;;;5051016;28;20040;-71
2023/06/27 07:44:43;;;;;;;4.13;0.57;;;20.90;99.90;;;;;;5056531;28;20048;-71
2023/06/27 07:47:09;;;;;;;6.57;0.80;;;21.00;99.90;;;;;;5045690;28;20110;-71
2023/06/27 07:49:34;;;;;;;5.78;0.60;;;20.90;99.90;;;;;;5058521;28;20047;-69
2023/06/27 07:52:00;;;;;;;3.08;0.63;;;;;;;;;;5065966;28;20049;-69
2023/06/27 07:54:27;;;;;;;2.13;0.50;;;21.10;99.90;;;;;;5056516;28;20036;-69
2023/06/27 07:56:56;;;;;;;8.23;1.00;;;21.00;99.90;;;;;;5049053;28;20044;-69
2023/06/27 07:59:22;;;;;;;3.10;0.65;;;21.10;99.90;;;;;;5065680;28;20048;-69
2023/06/27 08:01:48;;;;;;;6.65;0.65;;;21.00;99.90;;;;;;5065862;28;20036;-69
2023/06/27 08:04:15;;;;;;;6.07;0.70;;;21.30;99.90;;;;;;5065032;28;20842;-69
2023/06/27 08:06:41;;;;;;;3.63;0.47;;;;;;;;;;5056857;28;20139;-69
2023/06/27 08:09:07;;;;;;;3.25;0.60;;;21.00;99.90;;;;;;5066358;28;20036;-69
2023/06/27 08:11:32;;;;;;;2.58;0.30;;;21.10;99.90;;;;;;5070558;28;20075;-70
2023/06/27 08:13:58;;;;;;;5.22;0.88;;;21.30;99.90;;;;;;5060002;28;20097;-70
2023/06/27 08:16:23;;;;;;;2.38;0.50;;;21.40;99.90;;;;;;5063001;28;20070;-70
2023/06/27 08:18:49;;;;;;;7.28;0.70;;;21.30;99.90;;;;;;5059418;28;20060;-70
2023/06/27 08:21:14;;;;;;;5.60;0.55;;;21.80;99.90;;;;;;5065236;28;20045;-70
2023/06/27 08:23:40;;;;;;;3.40;0.40;;;21.20;99.90;;;;;;5045932;28;20488;-69
2023/06/27 08:26:05;;;;;;;5.45;1.02;;;21.00;99.90;;;;;;5053915;28;20040;-69
2023/06/27 08:28:32;;;;;;;3.03;0.50;;;21.20;99.90;;;;;;5057586;28;20052;-69
2023/06/27 08:30:57;;;;;;;7.10;0.75;;;21.30;99.90;;;;;;5057105;28;20418;-69
2023/06/27 08:33:24;;;;;;;4.65;1.02;;;21.20;99.90;;;;;;5054227;28;20052;-69
2023/06/27 08:35:50;;;;;;;6.60;0.63;;;21.30;99.90;;;;;;5057228;28;20056;-69
2023/06/27 08:38:17;;;;;;;4.72;1.73;;;21.80;99.90;;;;;;5069851;28;20040;-69
2023/06/27 08:40:44;;;;;;;4.47;0.93;;;21.50;99.90;;;;;;5060370;28;20106;-70
2023/06/27 08:43:10;;;;;;;2.28;0.30;;;21.60;99.90;;;;;;5047350;28;20486;-69
2023/06/27 08:45:38;;;;;;;5.07;0.68;;;21.50;99.90;;;;;;5041780;28;20075;-69
2023/06/27 08:48:06;;;;;;;3.05;0.50;;;21.70;99.90;;;;;;5065159;28;20526;-70
2023/06/27 08:50:36;;;;;;;3.72;0.50;;;21.40;99.90;;;;;;5054516;28;20036;-68
2023/06/27 08:53:04;;;;;;;3.90;0.43;;;21.50;99.90;;;;;;5062787;28;20055;-69
2023/06/27 08:55:38;;;;;;;2.67;0.47;;;21.60;99.90;;;;;;5063846;28;20068;-68
2023/06/27 08:58:06;;;;;;;4.40;0.85;;;21.30;99.90;;;;;;5057663;28;20040;-69
2023/06/27 09:00:33;;;;;;;2.08;0.55;;;21.50;99.90;;;;;;5055182;28;20098;-68
2023/06/27 09:02:59;;;;;;;6.20;0.80;;;21.30;99.90;;;;;;5060784;28;20045;-67
2023/06/27 09:05:24;;;;;;;1.92;0.40;;;21.40;99.90;;;;;;5055189;28;20044;-68
2023/06/27 09:07:50;;;;;;;3.28;0.50;;;21.50;99.90;;;;;;5062480;28;20048;-68
2023/06/27 09:10:16;;;;;;;4.15;0.43;;;21.40;99.90;;;;;;5053242;28;20045;-68
2023/06/27 09:12:44;;;;;;;6.07;0.65;;;21.30;99.90;;;;;;5061874;28;20630;-68
2023/06/27 09:15:14;;;;;;;3.60;0.60;;;21.50;99.90;;;;;;5058073;28;20052;-68
2023/06/27 09:17:40;;;;;;;3.60;0.47;;;21.30;99.90;;;;;;5062249;28;20487;-69
2023/06/27 09:20:06;;;;;;;3.97;0.50;;;21.40;99.90;;;;;;5046519;28;20039;-70
2023/06/27 09:22:32;;;;;;;4.00;0.60;;;21.30;99.90;;;;;;5056464;28;20628;-71
2023/06/27 09:25:19;;;;;;;3.33;0.75;;;21.40;99.90;;;;;;5053562;28;20057;-70
2023/06/27 09:27:45;;;;;;;3.53;0.70;;;21.50;99.90;;;;;;5046793;28;20041;-75
2023/06/27 09:30:12;;;;;;;3.03;0.40;;;21.40;99.90;;;;;;5047277;28;20520;-75
2023/06/27 09:32:56;;;;;;;6.28;0.88;;;21.50;99.90;;;;;;5066247;28;20080;-77
2023/06/27 09:35:26;;;;;;;6.85;0.68;;;23.10;99.90;;;;;;5042360;28;20057;-76
2023/06/27 09:37:53;;;;;;;4.38;0.80;;;21.70;99.90;;;;;;5057854;28;20040;-75
2023/06/27 09:40:27;;;;;;;3.70;0.82;;;21.50;99.90;;;;;;5061781;28;20040;-75
2023/06/27 09:42:57;;;;;;;6.40;2.15;;;23.20;99.90;;;;;;5065761;28;20040;-74
2023/06/27 09:45:24;;;;;;;6.20;0.80;;;21.70;99.90;;;;;;5062169;28;20048;-75
2023/06/27 09:47:52;;;;;;;3.15;0.40;;;21.90;99.90;;;;;;5057341;28;20041;-74
2023/06/27 09:50:28;;;;;;;4.90;0.45;;;21.70;99.90;;;;;;5048292;28;20522;-77
2023/06/27 09:53:03;;;;;;;5.75;0.98;;;21.60;99.90;;;;;;5060041;28;20047;-76
2023/06/27 09:55:29;;;;;;;4.75;0.40;;;21.70;99.90;;;;;;5054088;28;20529;-76
2023/06/27 09:57:56;;;;;;;5.82;0.60;;;21.80;99.90;;;;;;5054883;28;20048;-77
2023/06/27 10:00:23;;;;;;;5.82;0.90;;;23.30;99.90;;;;;;5057678;28;20114;-75
2023/06/27 10:02:49;;;;;;;6.70;0.90;;;23.30;99.90;;;;;;5047153;28;20551;-78
2023/06/27 10:05:20;;;;;;;2.45;0.50;;;23.60;99.90;;;;;;5046646;28;20041;-75
2023/06/27 10:07:49;;;;;;;3.38;0.70;;;23.20;99.90;;;;;;5066686;28;20040;-71
2023/06/27 10:10:15;;;;;;;7.70;1.17;;;21.90;99.90;;;;;;5057630;28;20083;-71
2023/06/27 10:12:42;;;;;;;5.85;0.40;;;23.30;99.90;;;;;;5059066;28;20486;-71
2023/06/27 10:15:09;;;;;;;5.90;0.85;;;23.30;99.90;;;;;;5061156;28;20072;-71
2023/06/27 10:17:35;;;;;;;7.32;0.50;;;22.30;99.90;;;;;;5055743;28;20147;-71
2023/06/27 10:20:02;;;;;;;6.97;0.68;;;22.40;99.90;;;;;;5066816;28;20079;-71
2023/06/27 10:22:32;;;;;;;2.53;0.50;;;22.40;99.90;;;;;;5063003;28;20072;-70
2023/06/27 10:25:03;;;;;;;6.72;0.45;;;22.20;99.90;;;;;;5051957;28;20129;-71
2023/06/27 10:27:32;;;;;;;4.05;0.82;;;23.70;99.90;;;;;;5066455;28;20043;-71
2023/06/27 10:29:58;;;;;;;6.85;0.50;;;24.00;99.90;;;;;;5059909;28;20090;-70
2023/06/27 10:32:38;;;;;;;3.80;0.47;;;22.30;99.90;;;;;;5049166;28;20045;-71
2023/06/27 10:35:24;;;;;;;7.50;0.80;;;23.30;99.90;;;;;;5049377;28;20115;-71
2023/06/27 10:38:05;;;;;;;4.90;0.77;;;22.50;99.90;;;;;;5066917;28;20044;-73
2023/06/27 10:40:59;;;;;;;2.47;0.63;;;22.00;99.90;;;;;;5064551;28;20041;-73
2023/06/27 10:43:51;;;;;;;6.20;1.30;;;22.00;99.90;;;;;;5064319;28;20788;-72
2023/06/27 10:46:30;;;;;;;3.10;0.50;;;22.20;99.90;;;;;;5056917;28;20093;-72
2023/06/27 10:49:06;;;;;;;4.45;0.60;;;22.10;99.90;;;;;;5043567;28;20043;-72
2023/06/27 10:51:44;;;;;;;3.10;0.70;;;23.30;99.90;;;;;;5050360;28;20044;-72
2023/06/27 10:54:12;;;;;;;3.03;0.57;;;22.50;99.90;;;;;;5054608;28;20520;-72
2023/06/27 10:56:53;;;;;;;3.90;0.45;;;22.60;99.90;;;;;;5043838;28;20104;-73
2023/06/27 10:59:21;;;;;;;3.90;0.50;;;22.30;99.90;;;;;;5040716;28;20044;-72
2023/06/27 11:02:00;;;;;;;4.70;0.65;;;22.10;99.90;;;;;;5064074;28;20068;-72
2023/06/27 11:04:39;;;;;;;3.60;0.75;;;22.20;99.90;;;;;;5066884;28;20591;-72
2023/06/27 11:07:07;;;;;;;2.95;0.90;;;22.50;99.90;;;;;;5064521;28;20078;-70
2023/06/27 11:09:35;;;;;;;4.65;0.70;;;22.60;99.90;;;;;;5066535;28;20045;-71
2023/06/27 11:12:14;;;;;;;2.45;0.40;;;22.60;99.90;;;;;;5062110;28;20075;-71
2023/06/27 11:14:44;;;;;;;3.78;0.50;;;24.40;99.90;;;;;;5064294;28;20075;-71
2023/06/27 11:17:16;;;;;;;3.72;0.80;;;22.60;99.90;;;;;;5033714;28;20514;-71
2023/06/27 11:19:42;;;;;;;5.03;0.70;;;23.00;99.90;;;;;;5047055;28;20059;-71
2023/06/27 11:22:09;;;;;;;4.53;0.75;;;23.60;99.90;;;;;;5047468;28;20049;-72
2023/06/27 11:24:35;;;;;;;6.72;0.82;;;22.50;99.90;;;;;;5051951;28;20037;-73
2023/06/27 11:27:03;;;;;;;6.47;0.70;;;22.80;99.90;;;;;;5065021;28;20053;-71
2023/06/27 11:29:28;;;;;;;3.85;0.60;;;23.00;99.90;;;;;;5052936;28;20524;-71
2023/06/27 11:31:55;;;;;;;2.92;0.60;;;24.50;99.90;;;;;;5060222;28;20131;-71
2023/06/27 11:34:21;;;;;;;2.10;0.40;;;23.10;99.90;;;;;;5055724;28;20047;-71
2023/06/27 11:36:47;;;;;;;3.35;0.60;;;23.50;99.90;;;;;;5058291;28;20044;-72
2023/06/27 11:39:14;;;;;;;6.22;0.65;;;22.90;99.90;;;;;;5050608;28;20048;-71
2023/06/27 11:41:41;;;;;;;5.85;0.60;;;23.20;99.90;;;;;;5071672;28;20044;-71
2023/06/27 11:44:14;;;;;;;6.70;0.98;;;23.30;99.90;;;;;;5058515;28;20067;-71
2023/06/27 11:46:50;;;;;;;3.80;0.40;;;24.00;99.90;;;;;;5049640;28;20050;-71
2023/06/27 11:49:16;;;;;;;3.45;0.45;;;23.20;99.90;;;;;;5069620;28;20037;-71
2023/06/27 11:51:42;;;;;;;9.15;0.63;;;25.00;99.90;;;;;;5070083;28;20037;-71
2023/06/27 11:54:08;;;;;;;3.92;0.50;;;24.40;99.90;;;;;;5063180;28;20368;-71
2023/06/27 11:56:40;;;;;;;3.65;0.40;;;23.30;99.90;;;;;;5069704;28;20044;-72
2023/06/27 11:59:06;;;;;;;3.28;0.73;;;23.10;99.90;;;;;;5071540;28;20059;-71
2023/06/27 12:01:38;;;;;;;5.72;0.55;;;23.20;99.90;;;;;;5068450;28;20764;-71
2023/06/27 12:04:12;;;;;;;7.70;0.30;;;23.40;99.90;;;;;;5038066;28;20051;-73
2023/06/27 12:06:37;;;;;;;5.10;0.55;;;24.20;99.90;;;;;;5058284;28;20867;-72
2023/06/27 12:09:07;;;;;;;6.05;0.65;;;23.60;99.90;;;;;;5074570;28;20118;-72
2023/06/27 12:11:34;;;;;;;5.57;0.50;;;23.50;99.90;;;;;;5061363;28;20048;-72
2023/06/27 12:14:01;;;;;;;9.80;0.82;;;23.60;99.90;;;;;;5069901;28;20254;-71
2023/06/27 12:16:29;;;;;;;3.28;0.32;;;23.70;99.90;;;;;;5037682;28;20044;-71
2023/06/27 12:22:29;;;;;;;1.92;0.35;;;24.00;99.90;;;;;;5859411;22;20063;-72
2023/06/27 12:24:58;;;;;;;2.15;0.35;;;23.60;99.90;;;;;;5041021;28;20047;-72
2023/06/27 12:27:24;;;;;;;3.33;0.47;;;23.50;99.90;;;;;;5085661;28;20073;-71
2023/06/27 12:29:50;;;;;;;5.20;0.50;;;23.60;99.90;;;;;;5069869;28;20043;-72
2023/06/27 12:32:15;;;;;;;3.83;0.68;;;23.40;99.90;;;;;;5081457;28;20043;-72
2023/06/27 12:34:41;;;;;;;3.42;0.45;;;23.40;99.90;;;;;;5061919;28;20071;-71
2023/06/27 12:37:06;;;;;;;2.22;0.50;;;23.50;99.90;;;;;;5079275;28;20036;-72
2023/06/27 12:39:33;;;;;;;2.38;0.50;;;23.50;99.90;;;;;;5071501;28;20039;-72
2023/06/27 12:41:58;;;;;;;2.60;0.30;;;23.40;99.90;;;;;;5069341;28;20075;-72
2023/06/27 12:44:24;;;;;;;1.83;0.30;;;23.90;99.90;;;;;;5077197;28;20571;-71
2023/06/27 12:46:50;;;;;;;2.92;0.38;;;23.90;99.90;;;;;;5078720;28;20051;-72
2023/06/27 12:49:16;;;;;;;4.57;0.70;;;24.80;99.90;;;;;;5068984;28;20048;-71
2023/06/27 12:51:41;;;;;;;7.30;0.65;;;23.20;99.90;;;;;;5072588;28;20135;-71
2023/06/27 12:54:07;;;;;;;2.50;0.63;;;24.50;99.90;;;;;;5070225;28;20052;-72
2023/06/27 12:56:32;;;;;;;3.88;0.60;;;23.20;99.90;;;;;;5081008;28;20415;-72
2023/06/27 12:58:58;;;;;;;5.05;0.60;;;22.80;99.90;;;;;;5070888;28;20051;-73
2023/06/27 13:01:23;;;;;;;1.70;0.30;;;23.10;99.90;;;;;;5074537;28;20040;-72
2023/06/27 13:03:49;;;;;;;2.00;0.60;;;22.90;99.90;;;;;;5048529;28;20488;-72
2023/06/27 13:06:15;;;;;;;2.72;0.50;;;23.20;99.90;;;;;;5063698;28;20751;-72
2023/06/27 13:08:40;;;;;;;5.38;0.73;;;24.90;99.90;;;;;;5065380;28;20512;-73
2023/06/27 13:11:06;;;;;;;3.25;0.40;;;23.30;99.90;;;;;;5072165;28;20417;-72
2023/06/27 13:13:32;;;;;;;4.22;0.38;;;24.90;99.90;;;;;;5056780;28;20051;-72
2023/06/27 13:15:57;;;;;;;3.53;0.40;;;23.00;99.90;;;;;;5074190;28;20125;-72